createdAt,value
2022-09-01T00:00:03.306Z,16.90
2022-09-01T00:02:31.686Z,16.90
2022-09-01T00:05:01.916Z,16.90
2022-09-01T00:07:31.616Z,16.80
2022-09-01T00:10:00.439Z,16.80
2022-09-01T00:12:29.135Z,16.90
2022-09-01T00:14:57.086Z,16.80
2022-09-01T00:17:25.143Z,16.70
2022-09-01T00:19:53.340Z,16.60
2022-09-01T00:22:22.756Z,16.70
2022-09-01T00:24:50.787Z,16.60
2022-09-01T00:27:18.991Z,16.50
2022-09-01T00:29:46.928Z,16.50
2022-09-01T00:32:15.422Z,16.50
2022-09-01T00:34:43.427Z,16.50
2022-09-01T00:37:11.418Z,16.50
2022-09-01T00:39:40.814Z,16.40
2022-09-01T00:42:08.787Z,16.40
2022-09-01T00:44:38.411Z,16.50
2022-09-01T00:47:07.919Z,16.60
2022-09-01T00:49:39.887Z,16.50
2022-09-01T00:52:11.992Z,16.40
2022-09-01T00:54:44.811Z,16.40
2022-09-01T00:57:13.929Z,16.40
2022-09-01T00:59:47.977Z,16.40
2022-09-01T01:02:16.515Z,16.40
2022-09-01T01:04:46.225Z,16.50
2022-09-01T01:07:14.828Z,16.40
2022-09-01T01:09:46.450Z,16.50
2022-09-01T01:12:18.198Z,16.50
2022-09-01T01:14:50.126Z,16.40
2022-09-01T01:17:19.323Z,16.50
2022-09-01T01:20:07.066Z,16.60
2022-09-01T01:23:01.904Z,16.70
2022-09-01T01:25:33.563Z,16.70
2022-09-01T01:28:10.611Z,16.60
2022-09-01T01:30:39.760Z,16.50
2022-09-01T01:33:08.721Z,16.50
2022-09-01T01:35:37.342Z,16.50
2022-09-01T01:38:08.318Z,16.50
2022-09-01T01:40:39.006Z,16.40
2022-09-01T01:43:07.500Z,16.40
2022-09-01T01:45:36.324Z,16.40
2022-09-01T01:48:06.057Z,16.30
2022-09-01T01:50:35.943Z,16.20
2022-09-01T01:53:11.300Z,16.20
2022-09-01T01:55:41.893Z,16.10
2022-09-01T01:58:12.037Z,16.20
2022-09-01T02:00:42.859Z,16.20
2022-09-01T02:03:12.628Z,16.20
2022-09-01T02:05:41.515Z,16.10
2022-09-01T02:08:11.659Z,16.10
2022-09-01T02:10:44.343Z,16.10
2022-09-01T02:13:16.380Z,16.10
2022-09-01T02:15:47.551Z,16.10
2022-09-01T02:18:18.173Z,16.10
2022-09-01T02:20:47.680Z,16.10
2022-09-01T02:23:18.117Z,16.10
2022-09-01T02:26:14.545Z,16.10
2022-09-01T02:28:39.994Z,16.20
2022-09-01T02:31:09.450Z,16.20
2022-09-01T02:33:40.437Z,16.20
2022-09-01T02:36:13.896Z,16.30
2022-09-01T02:38:46.646Z,16.20
2022-09-01T02:41:20.009Z,16.20
2022-09-01T02:43:48.566Z,16.10
2022-09-01T02:46:16.680Z,16.10
2022-09-01T02:48:49.057Z,16.00
2022-09-01T02:51:20.142Z,15.90
2022-09-01T02:53:53.034Z,15.90
2022-09-01T02:56:25.252Z,15.90
2022-09-01T02:58:54.276Z,15.80
2022-09-01T03:01:25.437Z,15.80
2022-09-01T03:03:56.644Z,15.80
2022-09-01T03:06:25.950Z,15.80
2022-09-01T03:08:56.696Z,15.80
2022-09-01T03:11:26.141Z,15.80
2022-09-01T03:13:54.419Z,15.70
2022-09-01T03:16:23.501Z,15.70
2022-09-01T03:18:52.471Z,15.70
2022-09-01T03:21:21.510Z,15.50
2022-09-01T03:23:51.004Z,15.50
2022-09-01T03:26:22.027Z,15.50
2022-09-01T03:28:52.163Z,15.50
2022-09-01T03:31:21.159Z,15.40
2022-09-01T03:33:50.958Z,15.40
2022-09-01T03:36:20.063Z,15.40
2022-09-01T03:38:49.696Z,15.40
2022-09-01T03:41:21.453Z,15.40
2022-09-01T03:43:51.246Z,15.40
2022-09-01T03:46:21.565Z,15.40
2022-09-01T03:48:51.292Z,15.30
2022-09-01T03:51:22.151Z,15.30
2022-09-01T03:53:54.434Z,15.40
2022-09-01T03:56:24.332Z,15.30
2022-09-01T03:58:54.709Z,15.40
2022-09-01T04:01:23.196Z,15.40
2022-09-01T04:03:52.916Z,15.40
2022-09-01T04:06:24.418Z,15.30
2022-09-01T04:08:56.830Z,15.20
2022-09-01T04:11:26.447Z,15.00
2022-09-01T04:13:55.846Z,15.10
2022-09-01T04:16:42.821Z,15.20
2022-09-01T04:19:20.495Z,15.20
2022-09-01T04:21:50.342Z,15.30
2022-09-01T04:24:19.039Z,15.20
2022-09-01T04:26:48.849Z,15.20
2022-09-01T04:29:20.535Z,15.30
2022-09-01T04:31:53.485Z,15.20
2022-09-01T04:34:22.589Z,15.20
2022-09-01T04:36:54.224Z,15.10
2022-09-01T04:39:22.807Z,15.10
2022-09-01T04:41:51.144Z,15.00
2022-09-01T04:44:20.673Z,15.10
2022-09-01T04:46:50.516Z,15.20
2022-09-01T04:49:22.344Z,15.20
2022-09-01T04:51:54.012Z,15.20
2022-09-01T04:54:23.153Z,15.30
2022-09-01T04:56:52.835Z,15.30
2022-09-01T04:59:27.201Z,15.20
2022-09-01T05:01:57.386Z,15.20
2022-09-01T05:04:28.140Z,15.20
2022-09-01T05:07:01.067Z,15.10
2022-09-01T05:09:31.177Z,15.00
2022-09-01T05:12:01.711Z,15.00
2022-09-01T05:14:31.067Z,15.00
2022-09-01T05:17:00.285Z,15.00
2022-09-01T05:19:30.913Z,15.10
2022-09-01T05:21:59.861Z,15.20
2022-09-01T05:24:30.345Z,15.30
2022-09-01T05:26:58.963Z,15.40
2022-09-01T05:29:27.787Z,15.60
2022-09-01T05:31:58.798Z,15.70
2022-09-01T05:34:27.947Z,15.80
2022-09-01T05:36:59.445Z,15.90
2022-09-01T05:39:28.620Z,16.00
2022-09-01T05:41:57.217Z,16.10
2022-09-01T05:44:25.252Z,16.20
2022-09-01T05:46:53.532Z,16.30
2022-09-01T05:49:24.650Z,16.30
2022-09-01T05:51:55.079Z,16.50
2022-09-01T05:54:27.338Z,16.60
2022-09-01T05:57:02.164Z,16.60
2022-09-01T05:59:36.363Z,16.80
2022-09-01T06:02:08.952Z,16.80
2022-09-01T06:04:41.184Z,16.90
2022-09-01T06:07:12.659Z,17.00
2022-09-01T06:09:45.999Z,17.00
2022-09-01T06:12:18.949Z,17.00
2022-09-01T06:14:48.286Z,17.00
2022-09-01T06:17:22.166Z,17.00
2022-09-01T06:19:52.595Z,17.10
2022-09-01T06:22:20.679Z,17.10
2022-09-01T06:24:53.773Z,17.20
2022-09-01T06:27:22.782Z,17.20
2022-09-01T06:29:53.600Z,17.40
2022-09-01T06:32:22.070Z,17.40
2022-09-01T06:34:51.391Z,17.50
2022-09-01T06:37:22.649Z,17.50
2022-09-01T06:39:51.284Z,17.60
2022-09-01T06:42:19.531Z,17.70
2022-09-01T06:44:47.835Z,17.70
2022-09-01T06:47:16.455Z,17.80
2022-09-01T06:49:44.797Z,17.80
2022-09-01T06:52:16.069Z,17.80
2022-09-01T06:54:44.347Z,17.90
2022-09-01T07:00:01.337Z,18.10
2022-09-01T07:02:31.841Z,18.00
2022-09-01T07:05:02.722Z,18.10
2022-09-01T07:10:23.213Z,18.30
2022-09-01T07:13:07.081Z,18.40
2022-09-01T07:18:28.337Z,18.50
2022-09-01T07:24:07.612Z,18.60
2022-09-01T07:26:36.150Z,18.60
2022-09-01T07:29:07.048Z,18.70
2022-09-01T07:38:47.404Z,18.70
2022-09-01T07:42:55.654Z,18.60
2022-09-01T07:45:31.185Z,18.80
2022-09-01T07:48:03.626Z,19.00
2022-09-01T07:50:41.662Z,19.00
2022-09-01T07:53:25.424Z,19.10
2022-09-01T07:55:57.201Z,19.00
2022-09-01T07:58:27.332Z,19.10
2022-09-01T08:00:56.446Z,19.00
2022-09-01T08:03:26.182Z,19.00
2022-09-01T08:05:57.788Z,19.10
2022-09-01T08:08:29.463Z,19.30
2022-09-01T08:11:06.330Z,19.30
2022-09-01T08:13:39.059Z,19.40
2022-09-01T08:16:17.106Z,19.40
2022-09-01T08:18:49.044Z,19.20
2022-09-01T08:21:19.691Z,19.30
2022-09-01T08:23:47.930Z,19.40
2022-09-01T08:26:20.181Z,19.50
2022-09-01T08:28:55.060Z,19.50
2022-09-01T08:31:25.202Z,19.50
2022-09-01T08:33:54.157Z,19.80
2022-09-01T08:36:24.841Z,19.90
2022-09-01T08:38:57.632Z,20.00
2022-09-01T08:41:39.068Z,20.10
2022-09-01T08:44:18.175Z,20.40
2022-09-01T08:46:46.493Z,20.30
2022-09-01T08:49:25.204Z,20.00
2022-09-01T08:51:59.066Z,20.20
2022-09-01T08:54:36.637Z,20.10
2022-09-01T08:57:09.718Z,20.20
2022-09-01T08:59:39.001Z,20.10
2022-09-01T09:02:26.347Z,20.10
2022-09-01T09:05:15.510Z,20.10
2022-09-01T09:08:07.712Z,20.30
2022-09-01T09:10:46.330Z,20.30
2022-09-01T09:13:21.836Z,20.50
2022-09-01T09:16:07.317Z,20.50
2022-09-01T09:18:59.589Z,20.50
2022-09-01T09:21:32.920Z,20.80
2022-09-01T09:24:11.649Z,21.00
2022-09-01T09:26:43.215Z,21.40
2022-09-01T09:29:11.550Z,21.70
2022-09-01T09:31:45.955Z,21.30
2022-09-01T09:34:19.509Z,21.20
2022-09-01T09:36:54.656Z,21.20
2022-09-01T09:39:24.930Z,21.00
2022-09-01T09:42:07.729Z,20.80
2022-09-01T09:44:43.839Z,20.80
2022-09-01T09:47:33.587Z,20.70
2022-09-01T09:50:14.067Z,21.00
2022-09-01T09:52:43.256Z,21.00
2022-09-01T09:55:24.498Z,21.00
2022-09-01T09:57:56.494Z,20.90
2022-09-01T10:00:27.159Z,21.00
2022-09-01T10:02:58.656Z,21.00
2022-09-01T10:05:37.561Z,21.10
2022-09-01T10:08:08.726Z,21.30
2022-09-01T10:10:57.589Z,21.30
2022-09-01T10:13:29.073Z,21.40
2022-09-01T10:16:03.680Z,21.30
2022-09-01T10:18:38.704Z,21.20
2022-09-01T10:21:14.351Z,21.40
2022-09-01T10:23:43.236Z,21.40
2022-09-01T10:26:18.893Z,21.50
2022-09-01T10:28:53.431Z,21.40
2022-09-01T10:31:29.121Z,21.40
2022-09-01T10:34:05.702Z,21.40
2022-09-01T10:36:37.422Z,21.30
2022-09-01T10:39:09.160Z,21.40
2022-09-01T10:41:59.778Z,21.60
2022-09-01T10:44:34.068Z,21.60
2022-09-01T10:47:06.308Z,21.80
2022-09-01T10:50:10.159Z,22.10
2022-09-01T10:53:00.819Z,22.10
2022-09-01T10:55:48.954Z,22.20
2022-09-01T11:02:27.743Z,22.20
2022-09-01T11:05:18.935Z,22.30
2022-09-01T11:08:14.636Z,22.10
2022-09-01T11:10:44.433Z,22.20
2022-09-01T11:13:49.790Z,22.50
2022-09-01T11:16:51.678Z,22.60
2022-09-01T11:19:45.094Z,22.80
2022-09-01T11:22:29.830Z,22.90
2022-09-01T11:25:26.049Z,23.00
2022-09-01T11:28:03.100Z,23.00
2022-09-01T11:30:52.860Z,23.30
2022-09-01T11:33:33.704Z,23.00
2022-09-01T11:36:04.516Z,23.20
2022-09-01T11:38:44.987Z,23.20
2022-09-01T11:41:23.970Z,23.80
2022-09-01T11:43:55.665Z,23.80
2022-09-01T11:46:29.148Z,23.80
2022-09-01T11:48:59.957Z,24.10
2022-09-01T11:51:28.155Z,24.20
2022-09-01T11:54:01.730Z,24.30
2022-09-01T11:56:30.615Z,23.80
2022-09-01T11:58:58.658Z,23.80
2022-09-01T12:01:35.515Z,24.20
2022-09-01T12:04:19.391Z,24.30
2022-09-01T12:07:02.182Z,24.20
2022-09-01T12:09:35.883Z,24.10
2022-09-01T12:12:05.711Z,24.00
2022-09-01T12:14:54.925Z,24.30
2022-09-01T12:17:24.672Z,24.00
2022-09-01T12:19:52.824Z,24.00
2022-09-01T12:22:22.611Z,24.10
2022-09-01T12:24:53.169Z,24.00
2022-09-01T12:27:23.168Z,23.80
2022-09-01T12:29:51.985Z,24.30
2022-09-01T12:32:21.149Z,24.10
2022-09-01T12:35:07.428Z,24.10
2022-09-01T12:37:39.471Z,24.40
2022-09-01T12:40:22.141Z,24.40
2022-09-01T12:42:53.082Z,24.50
2022-09-01T12:45:40.513Z,25.00
2022-09-01T12:48:25.002Z,25.40
2022-09-01T12:50:56.216Z,25.70
2022-09-01T12:53:32.524Z,25.40
2022-09-01T12:56:04.469Z,25.20
2022-09-01T12:58:33.607Z,25.40
2022-09-01T13:01:05.732Z,25.50
2022-09-01T13:03:36.840Z,25.10
2022-09-01T13:06:06.915Z,25.30
2022-09-01T13:08:37.795Z,25.40
2022-09-01T13:11:08.395Z,25.40
2022-09-01T13:13:36.684Z,25.00
2022-09-01T13:16:13.675Z,25.30
2022-09-01T13:21:33.089Z,24.60
2022-09-01T13:24:04.312Z,24.40
2022-09-01T13:26:32.562Z,24.60
2022-09-01T13:29:00.785Z,24.60
2022-09-01T13:31:30.410Z,24.40
2022-09-01T13:34:23.038Z,24.10
2022-09-01T13:36:51.486Z,24.20
2022-09-01T13:39:23.018Z,24.20
2022-09-01T13:41:51.318Z,24.20
2022-09-01T13:44:19.444Z,24.30
2022-09-01T13:50:04.517Z,24.60
2022-09-01T13:52:23.789Z,24.90
2022-09-01T13:54:53.258Z,25.40
2022-09-01T13:57:21.257Z,25.00
2022-09-01T13:59:49.230Z,24.80
2022-09-01T14:02:17.179Z,24.90
2022-09-01T14:04:46.443Z,24.80
2022-09-01T14:07:16.051Z,25.00
2022-09-01T14:09:43.983Z,24.90
2022-09-01T14:12:13.695Z,24.80
2022-09-01T14:17:29.695Z,24.30
2022-09-01T14:19:58.349Z,24.80
2022-09-01T14:22:26.300Z,25.00
2022-09-01T14:24:54.905Z,25.40
2022-09-01T14:27:25.337Z,25.40
2022-09-01T14:29:54.931Z,25.50
2022-09-01T14:32:26.931Z,25.50
2022-09-01T14:34:56.012Z,25.70
2022-09-01T14:37:26.114Z,25.90
2022-09-01T14:39:55.710Z,26.20
2022-09-01T14:42:29.035Z,25.80
2022-09-01T14:44:57.771Z,25.70
2022-09-01T14:47:25.951Z,25.30
2022-09-01T14:49:54.025Z,25.10
2022-09-01T14:52:22.326Z,24.90
2022-09-01T14:54:50.665Z,24.50
2022-09-01T14:57:37.744Z,24.60
2022-09-01T15:00:12.017Z,24.40
2022-09-01T15:02:40.937Z,24.50
2022-09-01T15:05:09.940Z,24.40
2022-09-01T15:07:38.212Z,24.60
2022-09-01T15:10:08.051Z,24.60
2022-09-01T15:12:36.939Z,24.60
2022-09-01T15:15:05.394Z,24.60
2022-09-01T15:17:34.760Z,24.60
2022-09-01T15:20:17.839Z,24.40
2022-09-01T15:22:46.943Z,24.30
2022-09-01T15:25:15.439Z,24.50
2022-09-01T15:27:43.826Z,24.50
2022-09-01T15:30:17.005Z,24.30
2022-09-01T15:32:47.787Z,24.40
2022-09-01T15:35:16.569Z,24.30
2022-09-01T15:37:46.575Z,24.40
2022-09-01T15:40:14.777Z,24.20
2022-09-01T15:42:42.842Z,24.10
2022-09-01T15:45:12.949Z,24.40
2022-09-01T15:47:45.686Z,24.30
2022-09-01T15:50:22.000Z,24.40
2022-09-01T15:52:53.072Z,24.50
2022-09-01T15:55:22.772Z,24.50
2022-09-01T15:57:50.890Z,24.50
2022-09-01T16:00:19.873Z,24.50
2022-09-01T16:02:47.842Z,24.30
2022-09-01T16:05:18.486Z,24.60
2022-09-01T16:07:46.858Z,24.90
2022-09-01T16:10:15.161Z,24.90
2022-09-01T16:12:44.738Z,24.90
2022-09-01T16:15:14.736Z,25.10
2022-09-01T16:18:15.085Z,25.00
2022-09-01T16:20:56.302Z,25.00
2022-09-01T16:23:30.068Z,24.90
2022-09-01T16:26:01.260Z,25.00
2022-09-01T16:28:31.123Z,25.10
2022-09-01T16:31:04.136Z,25.00
2022-09-01T16:33:34.031Z,25.00
2022-09-01T16:36:18.672Z,24.80
2022-09-01T16:38:50.991Z,25.00
2022-09-01T16:41:39.666Z,25.40
2022-09-01T16:44:18.833Z,25.60
2022-09-01T16:46:54.105Z,25.30
2022-09-01T16:49:29.259Z,25.30
2022-09-01T16:52:05.451Z,25.40
2022-09-01T16:54:49.167Z,25.30
2022-09-01T16:57:26.256Z,25.40
2022-09-01T16:59:56.459Z,25.10
2022-09-01T17:02:39.686Z,25.00
2022-09-01T17:05:18.715Z,25.00
2022-09-01T17:07:54.226Z,25.00
2022-09-01T17:10:34.523Z,24.90
2022-09-01T17:13:17.247Z,24.80
2022-09-01T17:15:50.408Z,25.00
2022-09-01T17:18:23.883Z,25.00
2022-09-01T17:20:58.054Z,24.60
2022-09-01T17:23:30.775Z,24.50
2022-09-01T17:26:03.672Z,24.90
2022-09-01T17:28:36.590Z,24.20
2022-09-01T17:31:14.362Z,23.60
2022-09-01T17:33:58.275Z,23.40
2022-09-01T17:36:35.631Z,23.40
2022-09-01T17:39:14.171Z,23.40
2022-09-01T17:41:47.646Z,23.30
2022-09-01T17:44:23.619Z,23.20
2022-09-01T17:46:58.854Z,23.20
2022-09-01T17:49:34.843Z,23.00
2022-09-01T17:52:09.547Z,22.80
2022-09-01T17:54:46.130Z,22.80
2022-09-01T17:57:24.007Z,22.70
2022-09-01T18:00:00.931Z,22.60
2022-09-01T18:03:09.925Z,22.50
2022-09-01T18:05:41.459Z,22.30
2022-09-01T18:08:19.273Z,22.20
2022-09-01T18:10:54.718Z,22.10
2022-09-01T18:13:52.870Z,22.00
2022-09-01T18:16:19.001Z,22.00
2022-09-01T18:18:49.487Z,21.80
2022-09-01T18:21:20.244Z,21.80
2022-09-01T18:23:51.786Z,21.80
2022-09-01T18:26:27.250Z,21.80
2022-09-01T18:28:55.510Z,21.70
2022-09-01T18:31:52.221Z,21.80
2022-09-01T18:34:28.328Z,21.70
2022-09-01T18:37:02.664Z,21.60
2022-09-01T18:39:39.037Z,21.40
2022-09-01T18:42:17.742Z,21.40
2022-09-01T18:44:54.689Z,21.40
2022-09-01T18:47:31.813Z,21.40
2022-09-01T18:50:08.944Z,21.20
2022-09-01T18:52:57.172Z,21.30
2022-09-01T18:55:32.417Z,21.30
2022-09-01T18:58:05.560Z,21.20
2022-09-01T19:00:40.079Z,21.30
2022-09-01T19:03:16.980Z,21.20
2022-09-01T19:05:58.327Z,21.30
2022-09-01T19:08:38.493Z,21.20
2022-09-01T19:11:12.677Z,21.10
2022-09-01T19:13:53.280Z,20.90
2022-09-01T19:16:31.738Z,20.80
2022-09-01T19:19:08.673Z,20.80
2022-09-01T19:21:37.839Z,20.70
2022-09-01T19:24:11.012Z,20.70
2022-09-01T19:26:42.288Z,20.70
2022-09-01T19:29:17.512Z,20.70
2022-09-01T19:31:49.141Z,20.70
2022-09-01T19:34:20.063Z,20.90
2022-09-01T19:36:55.899Z,20.80
2022-09-01T19:39:26.425Z,21.00
2022-09-01T19:42:02.393Z,21.10
2022-09-01T19:44:40.079Z,21.20
2022-09-01T19:47:13.691Z,21.10
2022-09-01T19:49:49.577Z,21.00
2022-09-01T19:52:27.976Z,21.00
2022-09-01T19:55:00.310Z,21.00
2022-09-01T19:57:35.478Z,20.90
2022-09-01T20:00:12.141Z,20.90
2022-09-01T20:02:47.433Z,21.00
2022-09-01T20:05:26.954Z,20.90
2022-09-01T20:07:59.472Z,20.90
2022-09-01T20:10:39.582Z,20.80
2022-09-01T20:13:28.595Z,20.70
2022-09-01T20:16:05.836Z,20.70
2022-09-01T20:18:38.251Z,20.60
2022-09-01T20:21:20.969Z,20.60
2022-09-01T20:24:01.661Z,20.60
2022-09-01T20:26:34.468Z,20.60
2022-09-01T20:29:10.184Z,20.70
2022-09-01T20:31:45.328Z,20.80
2022-09-01T20:34:19.808Z,20.60
2022-09-01T20:36:51.679Z,20.60
2022-09-01T20:39:43.284Z,20.50
2022-09-01T20:42:18.300Z,20.50
2022-09-01T20:44:56.229Z,20.60
2022-09-01T20:47:27.807Z,20.60
2022-09-01T20:49:58.095Z,20.60
2022-09-01T20:52:36.764Z,20.40
2022-09-01T20:55:13.921Z,20.40
2022-09-01T20:57:49.582Z,20.50
2022-09-01T21:00:25.762Z,20.40
2022-09-01T21:03:03.750Z,20.40
2022-09-01T21:05:42.570Z,20.50
2022-09-01T21:08:29.868Z,20.40
2022-09-01T21:11:04.135Z,20.30
2022-09-01T21:13:47.877Z,20.30
2022-09-01T21:16:23.539Z,20.30
2022-09-01T21:18:59.299Z,20.40
2022-09-01T21:21:33.343Z,20.40
2022-09-01T21:24:02.674Z,20.30
2022-09-01T21:26:31.219Z,20.40
2022-09-01T21:29:05.564Z,20.40
2022-09-01T21:31:33.547Z,20.30
2022-09-01T21:34:01.439Z,20.20
2022-09-01T21:36:29.379Z,20.20
2022-09-01T21:38:57.276Z,20.10
2022-09-01T21:41:26.611Z,20.10
2022-09-01T21:43:54.635Z,20.00
2022-09-01T21:46:22.611Z,19.90
2022-09-01T21:48:50.738Z,20.00
2022-09-01T21:51:18.729Z,20.10
2022-09-01T21:53:46.623Z,19.90
2022-09-01T21:56:14.610Z,20.00
2022-09-01T21:58:43.972Z,20.00
2022-09-01T22:01:17.934Z,19.90
2022-09-01T22:03:46.002Z,19.80
2022-09-01T22:06:14.247Z,19.70
2022-09-01T22:08:42.208Z,19.70
2022-09-01T22:11:11.225Z,19.70
2022-09-01T22:13:39.156Z,19.70
2022-09-01T22:16:08.730Z,19.70
2022-09-01T22:18:36.829Z,19.50
2022-09-01T22:21:06.202Z,19.50
2022-09-01T22:23:34.768Z,19.40
2022-09-01T22:26:03.035Z,19.40
2022-09-01T22:28:31.122Z,19.30
2022-09-01T22:30:59.380Z,19.20
2022-09-01T22:33:29.548Z,19.20
2022-09-01T22:35:58.491Z,19.00
2022-09-01T22:38:27.034Z,19.00
2022-09-01T22:40:57.449Z,18.90
2022-09-01T22:43:26.963Z,18.90
2022-09-01T22:45:56.502Z,18.80
2022-09-01T22:48:26.993Z,18.70
2022-09-01T22:50:56.392Z,18.80
2022-09-01T22:53:24.568Z,18.80
2022-09-01T22:55:53.391Z,18.70
2022-09-01T22:58:21.988Z,18.50
2022-09-01T23:00:52.868Z,18.40
2022-09-01T23:03:21.823Z,18.40
2022-09-01T23:05:50.474Z,18.30
2022-09-01T23:08:19.818Z,18.40
2022-09-01T23:10:48.241Z,18.30
2022-09-01T23:13:17.233Z,18.10
2022-09-01T23:15:45.168Z,18.20
2022-09-01T23:18:13.335Z,18.10
2022-09-01T23:20:41.243Z,18.10
2022-09-01T23:23:09.348Z,18.10
2022-09-01T23:25:39.338Z,18.20
2022-09-01T23:28:09.948Z,18.10
2022-09-01T23:30:37.960Z,18.20
2022-09-01T23:33:06.788Z,17.90
2022-09-01T23:35:35.117Z,17.90
2022-09-01T23:38:03.062Z,18.00
2022-09-01T23:40:31.064Z,18.00
2022-09-01T23:43:00.394Z,18.10
2022-09-01T23:45:29.708Z,18.00
2022-09-01T23:48:04.118Z,18.00
2022-09-01T23:50:32.010Z,17.90
2022-09-01T23:52:59.963Z,18.00
2022-09-01T23:55:27.924Z,18.00
2022-09-01T23:57:55.870Z,18.10
